createdAt,value
2023-04-18T00:01:34.719Z,94798.63
2023-04-18T00:04:36.941Z,94795.81
2023-04-18T00:07:39.314Z,94808.00
2023-04-18T00:10:41.627Z,94798.78
2023-04-18T00:13:44.428Z,94801.94
2023-04-18T00:16:46.786Z,94808.50
2023-04-18T00:19:49.054Z,94802.09
2023-04-18T00:22:55.045Z,94811.47
2023-04-18T00:25:57.389Z,94807.84
2023-04-18T00:28:59.790Z,94808.66
2023-04-18T00:32:01.815Z,94809.16
2023-04-18T00:35:04.243Z,94806.84
2023-04-18T00:38:06.267Z,94803.75
2023-04-18T00:41:08.203Z,94804.72
2023-04-18T00:44:10.140Z,94801.13
2023-04-18T00:47:11.968Z,94809.69
2023-04-18T00:50:14.820Z,94813.31
2023-04-18T00:53:16.827Z,94807.91
2023-04-18T00:56:18.887Z,94810.34
2023-04-18T00:59:22.302Z,94804.25
2023-04-18T01:02:26.268Z,94802.13
2023-04-18T01:05:28.399Z,94800.66
2023-04-18T01:08:31.506Z,94800.31
2023-04-18T01:11:33.582Z,94800.66
2023-04-18T01:14:35.523Z,94790.31
2023-04-18T01:17:38.538Z,94794.91
2023-04-18T01:20:43.845Z,94796.41
2023-04-18T01:23:48.021Z,94800.66
2023-04-18T01:26:50.006Z,94798.69
2023-04-18T01:29:51.950Z,94801.16
2023-04-18T01:32:54.108Z,94786.34
2023-04-18T01:35:56.060Z,94796.56
2023-04-18T01:38:58.790Z,94794.06
2023-04-18T01:42:02.091Z,94798.34
2023-04-18T01:45:05.738Z,94799.34
2023-04-18T01:48:07.696Z,94795.22
2023-04-18T01:51:09.536Z,94799.03
2023-04-18T01:54:11.551Z,94794.75
2023-04-18T01:57:13.748Z,94798.03
2023-04-18T02:00:15.938Z,94795.22
2023-04-18T02:03:18.103Z,94795.72
2023-04-18T02:06:20.062Z,94807.25
2023-04-18T02:09:22.015Z,94797.72
2023-04-18T02:12:24.352Z,94802.78
2023-04-18T02:15:26.252Z,94802.97
2023-04-18T02:18:28.335Z,94803.94
2023-04-18T02:21:30.618Z,94794.91
2023-04-18T02:24:32.468Z,94810.72
2023-04-18T02:27:34.298Z,94794.41
2023-04-18T02:30:36.377Z,94797.72
2023-04-18T02:33:38.229Z,94794.59
2023-04-18T02:36:40.100Z,94807.22
2023-04-18T02:39:41.947Z,94793.56
2023-04-18T02:42:44.521Z,94808.22
2023-04-18T02:45:46.518Z,94797.69
2023-04-18T02:48:48.354Z,94804.13
2023-04-18T02:51:50.439Z,94802.97
2023-04-18T02:54:52.618Z,94806.91
2023-04-18T02:57:54.493Z,94806.56
2023-04-18T03:00:56.871Z,94801.63
2023-04-18T03:03:59.222Z,94798.66
2023-04-18T03:07:01.402Z,94805.94
2023-04-18T03:10:03.778Z,94803.94
2023-04-18T03:13:06.555Z,94798.34
2023-04-18T03:16:08.658Z,94801.66
2023-04-18T03:19:10.594Z,94817.63
2023-04-18T03:22:14.075Z,94813.66
2023-04-18T03:25:17.073Z,94801.00
2023-04-18T03:28:19.161Z,94810.03
2023-04-18T03:31:21.206Z,94808.25
2023-04-18T03:34:23.326Z,94817.47
2023-04-18T03:37:25.553Z,94812.19
2023-04-18T03:40:27.512Z,94824.03
2023-04-18T03:43:29.613Z,94819.59
2023-04-18T03:46:31.561Z,94812.84
2023-04-18T03:49:33.562Z,94814.31
2023-04-18T03:52:35.620Z,94817.47
2023-04-18T03:55:37.548Z,94823.06
2023-04-18T03:58:39.521Z,94814.31
2023-04-18T04:01:41.429Z,94812.66
2023-04-18T04:04:43.567Z,94816.47
2023-04-18T04:07:45.505Z,94826.16
2023-04-18T04:10:47.439Z,94828.44
2023-04-18T04:13:49.810Z,94819.22
2023-04-18T04:16:52.064Z,94814.78
2023-04-18T04:19:54.074Z,94843.44
2023-04-18T04:22:56.986Z,94830.75
2023-04-18T04:25:59.462Z,94843.41
2023-04-18T04:29:02.669Z,94838.16
2023-04-18T04:32:05.791Z,94842.59
2023-04-18T04:35:08.657Z,94839.63
2023-04-18T04:38:12.436Z,94847.22
2023-04-18T04:41:15.008Z,94843.28
2023-04-18T04:44:18.076Z,94851.50
2023-04-18T04:47:20.513Z,94846.06
2023-04-18T04:50:22.665Z,94854.47
2023-04-18T04:53:30.376Z,94844.56
2023-04-18T04:56:33.232Z,94858.06
2023-04-18T04:59:35.556Z,94854.75
2023-04-18T05:02:37.794Z,94855.81
2023-04-18T05:05:40.299Z,94856.25
2023-04-18T05:08:42.972Z,94851.41
2023-04-18T05:11:46.544Z,94860.97
2023-04-18T05:14:48.983Z,94873.13
2023-04-18T05:17:51.439Z,94866.75
2023-04-18T05:20:53.786Z,94861.28
2023-04-18T05:23:57.942Z,94872.28
2023-04-18T05:27:00.262Z,94862.53
2023-04-18T05:30:02.546Z,94862.19
2023-04-18T05:33:05.551Z,94868.53
2023-04-18T05:36:08.854Z,94882.94
2023-04-18T05:39:11.604Z,94868.06
2023-04-18T05:42:13.913Z,94879.63
2023-04-18T05:45:16.320Z,94869.72
2023-04-18T05:48:18.788Z,94861.19
2023-04-18T05:51:22.045Z,94877.44
2023-04-18T05:54:27.620Z,94860.81
2023-04-18T05:57:29.461Z,94871.72
2023-04-18T06:00:31.634Z,94870.75
2023-04-18T06:03:38.996Z,94873.81
2023-04-18T06:06:41.172Z,94868.63
2023-04-18T06:09:43.207Z,94872.09
2023-04-18T06:12:45.364Z,94855.91
2023-04-18T06:15:47.431Z,94848.16
2023-04-18T06:18:49.331Z,94869.34
2023-04-18T06:21:52.163Z,94855.50
2023-04-18T06:24:55.869Z,94866.16
2023-04-18T06:27:57.929Z,94854.44
2023-04-18T06:30:59.811Z,94868.91
2023-04-18T06:34:01.908Z,94869.44
2023-04-18T06:37:04.010Z,94876.88
2023-04-18T06:40:06.605Z,94875.69
2023-04-18T06:43:08.559Z,94886.06
2023-04-18T06:46:10.795Z,94891.81
2023-04-18T06:49:12.776Z,94882.53
2023-04-18T06:52:14.662Z,94898.56
2023-04-18T06:55:16.750Z,94881.25
2023-04-18T06:58:18.613Z,94900.47
2023-04-18T07:01:21.107Z,94896.81
2023-04-18T07:04:23.911Z,94909.44
2023-04-18T07:07:26.503Z,94896.25
2023-04-18T07:10:28.664Z,94902.13
2023-04-18T07:13:30.834Z,94904.03
2023-04-18T07:16:32.837Z,94903.31
2023-04-18T07:19:34.798Z,94914.53
2023-04-18T07:22:36.771Z,94924.44
2023-04-18T07:25:39.057Z,94911.91
2023-04-18T07:28:41.262Z,94914.84
2023-04-18T07:31:43.182Z,94913.75
2023-04-18T07:34:45.192Z,94903.31
2023-04-18T07:37:47.125Z,94921.03
2023-04-18T07:40:59.877Z,94916.47
2023-04-18T07:44:02.527Z,94928.19
2023-04-18T07:47:07.174Z,94934.44
2023-04-18T07:50:10.269Z,94929.69
2023-04-18T07:53:12.196Z,94938.59
2023-04-18T07:56:14.581Z,94948.66
2023-04-18T07:59:16.757Z,94944.88
2023-04-18T08:02:19.011Z,94943.59
2023-04-18T08:05:21.100Z,94937.06
2023-04-18T08:08:22.935Z,94928.00
2023-04-18T08:11:24.924Z,94925.41
2023-04-18T08:14:26.931Z,94939.34
2023-04-18T08:17:28.972Z,94936.50
2023-04-18T08:20:31.201Z,94950.81
2023-04-18T08:23:34.256Z,94951.41
2023-04-18T08:26:36.387Z,94948.03
2023-04-18T08:29:38.297Z,94960.66
2023-04-18T08:32:40.572Z,94963.09
2023-04-18T08:35:43.099Z,94960.59
2023-04-18T08:38:45.004Z,94949.91
2023-04-18T08:41:53.879Z,94958.94
2023-04-18T08:44:56.103Z,94957.03
2023-04-18T08:48:01.458Z,94962.06
2023-04-18T08:51:05.030Z,94960.13
2023-04-18T08:54:08.114Z,94961.66
2023-04-18T08:57:16.464Z,94959.50
2023-04-18T09:00:18.702Z,94957.34
2023-04-18T09:03:40.706Z,94968.28
2023-04-18T09:06:53.062Z,94977.03
2023-04-18T09:09:59.858Z,94983.47
2023-04-18T09:13:04.412Z,94966.72
2023-04-18T09:16:07.295Z,94949.09
2023-04-18T09:19:11.187Z,94975.56
2023-04-18T09:22:17.662Z,94965.94
2023-04-18T09:25:42.724Z,94979.81
2023-04-18T09:28:53.954Z,94970.53
2023-04-18T09:32:01.528Z,94965.13
2023-04-18T09:35:05.561Z,94958.78
2023-04-18T09:38:08.347Z,94969.84
2023-04-18T09:41:11.870Z,94984.75
2023-04-18T09:44:15.826Z,94976.78
2023-04-18T09:47:17.891Z,94964.88
2023-04-18T09:50:22.247Z,94953.16
2023-04-18T14:43:50.267Z,94889.56
2023-04-18T14:46:52.581Z,94888.50
2023-04-18T14:49:54.571Z,94885.84
2023-04-18T14:52:56.537Z,94877.09
2023-04-18T14:55:58.669Z,94891.22
2023-04-18T14:59:02.418Z,94903.13
2023-04-18T15:02:05.241Z,94893.91
2023-04-18T15:05:08.619Z,94920.09
2023-04-18T15:08:14.564Z,94900.81
2023-04-18T15:11:16.704Z,94909.44
2023-04-18T15:14:18.812Z,94912.06
2023-04-18T15:17:20.896Z,94920.88
2023-04-18T15:20:24.002Z,94906.31
2023-04-18T15:23:26.217Z,94917.47
2023-04-18T15:26:28.164Z,94905.00
2023-04-18T15:29:30.344Z,94911.41
2023-04-18T15:32:32.837Z,94932.91
2023-04-18T15:35:34.915Z,94911.41
2023-04-18T15:38:37.636Z,94916.94
2023-04-18T15:41:42.086Z,94932.88
2023-04-18T15:44:44.459Z,94930.59
2023-04-18T15:47:46.681Z,94935.78
2023-04-18T15:50:52.273Z,94928.25
2023-04-18T15:53:55.260Z,94945.53
2023-04-18T15:56:58.284Z,94930.00
2023-04-18T16:00:00.441Z,94945.22
2023-04-18T16:03:04.932Z,94934.56
2023-04-18T16:06:07.158Z,94954.53
2023-04-18T16:09:09.916Z,94932.59
2023-04-18T16:12:11.770Z,94943.75
2023-04-18T16:15:13.767Z,94947.97
2023-04-18T16:18:15.772Z,94932.25
2023-04-18T16:21:18.642Z,94947.47
2023-04-18T16:24:20.549Z,94939.25
2023-04-18T16:27:22.541Z,94947.50
2023-04-18T16:30:24.480Z,94953.38
2023-04-18T16:33:26.548Z,94958.69
2023-04-18T16:36:28.931Z,94958.22
2023-04-18T16:39:31.196Z,94956.97
2023-04-18T16:42:33.889Z,94964.75
2023-04-18T16:45:35.967Z,94973.34
2023-04-18T16:48:38.761Z,94955.72
2023-04-18T16:51:41.025Z,94975.19
2023-04-18T16:54:43.647Z,94977.84
2023-04-18T16:57:45.579Z,94989.13
2023-04-18T17:00:47.888Z,94992.28
2023-04-18T17:03:50.371Z,94990.19
2023-04-18T17:06:52.585Z,94990.94
2023-04-18T17:09:54.521Z,94982.88
2023-04-18T17:12:56.592Z,94975.03
2023-04-18T17:15:58.665Z,94978.47
2023-04-18T17:19:00.691Z,94983.50
2023-04-18T17:22:03.024Z,94973.38
2023-04-18T17:25:06.092Z,94964.50
2023-04-18T17:28:08.222Z,94976.22
2023-04-18T17:31:10.136Z,94981.84
2023-04-18T17:34:11.985Z,94976.66
2023-04-18T17:37:15.838Z,94966.69
2023-04-18T17:40:17.790Z,94976.50
2023-04-18T17:43:20.012Z,94979.56
2023-04-18T17:46:23.737Z,94973.38
2023-04-18T17:49:30.867Z,94980.47
2023-04-18T17:52:33.101Z,94954.44
2023-04-18T17:55:35.487Z,94953.34
2023-04-18T17:58:37.563Z,94966.50
2023-04-18T18:01:40.022Z,94964.44
2023-04-18T18:04:42.222Z,94970.91
2023-04-18T18:07:47.593Z,94968.63
2023-04-18T18:10:50.816Z,94969.06
2023-04-18T18:13:54.945Z,94969.44
2023-04-18T18:16:57.344Z,94970.63
2023-04-18T18:19:59.593Z,94966.50
2023-04-18T18:23:02.325Z,94971.13
2023-04-18T18:26:06.606Z,94971.53
2023-04-18T18:29:11.875Z,94979.00
2023-04-18T18:32:14.996Z,94960.00
2023-04-18T18:35:17.222Z,94978.09
2023-04-18T18:38:19.705Z,94964.34
2023-04-18T18:41:25.284Z,94972.22
2023-04-18T18:44:27.271Z,94969.38
2023-04-18T18:47:30.639Z,94967.41
2023-04-18T18:50:33.852Z,94968.75
2023-04-18T18:53:37.734Z,94968.38
2023-04-18T18:56:42.691Z,94973.75
2023-04-18T18:59:44.984Z,94977.25
2023-04-18T19:02:47.503Z,94965.25
2023-04-18T19:05:49.710Z,94970.38
2023-04-18T19:08:51.889Z,94957.84
2023-04-18T19:11:57.071Z,94966.97
2023-04-18T19:15:00.583Z,94970.78
2023-04-18T19:18:02.775Z,94971.16
2023-04-18T19:21:05.423Z,94959.75
2023-04-18T19:24:07.862Z,94956.00
2023-04-18T19:27:10.470Z,94946.28
2023-04-18T19:30:13.897Z,94963.63
2023-04-18T19:33:20.050Z,94937.69
2023-04-18T19:36:28.829Z,94942.88
2023-04-18T19:39:31.537Z,94959.53
2023-04-18T19:42:33.818Z,94958.84
2023-04-18T19:45:36.261Z,94966.09
2023-04-18T19:48:38.254Z,94964.63
2023-04-18T19:51:40.976Z,94964.31
2023-04-18T19:54:43.222Z,94955.72
2023-04-18T19:57:45.941Z,94953.16
2023-04-18T20:00:48.212Z,94948.91
2023-04-18T20:03:51.372Z,94947.91
2023-04-18T20:06:54.312Z,94942.78
2023-04-18T20:09:57.182Z,94949.75
2023-04-18T20:12:59.447Z,94949.25
2023-04-18T20:16:01.837Z,94960.31
2023-04-18T20:19:05.813Z,94951.41
2023-04-18T20:22:08.201Z,94935.94
2023-04-18T20:25:10.814Z,94941.84
2023-04-18T20:28:13.437Z,94934.88
2023-04-18T20:31:15.903Z,94940.63
2023-04-18T20:34:20.566Z,94940.63
2023-04-18T20:37:22.848Z,94933.25
2023-04-18T20:40:25.728Z,94924.69
2023-04-18T20:43:28.143Z,94932.47
2023-04-18T20:46:31.269Z,94938.19
2023-04-18T20:49:34.210Z,94945.94
2023-04-18T20:52:36.612Z,94941.03
2023-04-18T20:55:38.876Z,94928.69
2023-04-18T20:58:41.951Z,94935.81
2023-04-18T21:01:44.322Z,94927.66
2023-04-18T21:04:46.931Z,94932.63
2023-04-18T21:07:49.370Z,94941.56
2023-04-18T21:10:51.412Z,94938.63
2023-04-18T21:13:53.299Z,94935.31
2023-04-18T21:16:56.199Z,94933.81
2023-04-18T21:19:58.084Z,94930.38
2023-04-18T21:22:59.981Z,94935.00
2023-04-18T21:26:01.862Z,94934.34
2023-04-18T21:29:04.930Z,94931.19
2023-04-18T21:32:06.822Z,94924.94
2023-04-18T21:35:09.075Z,94932.00
2023-04-18T21:38:11.121Z,94924.72
2023-04-18T21:41:19.148Z,94918.84
2023-04-18T21:44:21.321Z,94921.78
2023-04-18T21:47:23.296Z,94909.75
2023-04-18T21:50:25.394Z,94926.59
2023-04-18T21:53:27.330Z,94910.97
2023-04-18T21:56:29.206Z,94912.38
2023-04-18T21:59:31.586Z,94914.88
2023-04-18T22:02:33.654Z,94907.63
2023-04-18T22:05:36.289Z,94907.31
2023-04-18T22:08:38.848Z,94901.50
2023-04-18T22:11:40.799Z,94895.44
2023-04-18T22:14:48.200Z,94910.41
2023-04-18T22:17:50.479Z,94890.00
2023-04-18T22:20:53.926Z,94875.69
2023-04-18T22:23:56.177Z,94880.25
2023-04-18T22:26:58.119Z,94887.19
2023-04-18T22:30:00.106Z,94879.44
2023-04-18T22:33:02.204Z,94874.03
2023-04-18T22:36:04.598Z,94886.50
2023-04-18T22:39:07.494Z,94876.56
2023-04-18T22:42:09.410Z,94858.09
2023-04-18T22:45:11.369Z,94869.50
2023-04-18T22:48:13.437Z,94867.88
2023-04-18T22:51:15.431Z,94880.91
2023-04-18T22:54:17.582Z,94865.94
2023-04-18T22:57:19.696Z,94855.59
2023-04-18T23:00:21.825Z,94855.75
2023-04-18T23:03:24.089Z,94860.69
2023-04-18T23:06:28.005Z,94853.81
2023-04-18T23:09:31.163Z,94853.31
2023-04-18T23:12:33.141Z,94847.19
2023-04-18T23:15:35.287Z,94845.25
2023-04-18T23:18:37.424Z,94838.81
2023-04-18T23:21:39.394Z,94839.34
2023-04-18T23:24:41.327Z,94837.38
2023-04-18T23:27:43.346Z,94831.66
2023-04-18T23:30:45.243Z,94830.66
2023-04-18T23:33:47.136Z,94835.91
2023-04-18T23:36:49.102Z,94821.31
2023-04-18T23:39:51.655Z,94827.69
2023-04-18T23:42:54.641Z,94826.59
2023-04-18T23:45:56.965Z,94822.44
2023-04-18T23:48:59.269Z,94829.22
2023-04-18T23:52:01.324Z,94819.69
2023-04-18T23:55:03.328Z,94827.44
2023-04-18T23:58:05.244Z,94822.97
